Time;durP1;ratioP1;P1;durP2;ratioP2;P2;SDS_P1;SDS_P2;PMS_P1;PMS_P2;Temp;Humidity;BMP_temperature;BMP_pressure;BME280_temperature;BME280_humidity;BME280_pressure;Samples;Min_cycle;Max_cycle;Signal;HPM_P1;HPM_P2
2022/07/08 00:00:58;;;;;;;1.90;1.60;;;13.30;95.10;;;;;;4215846;28;20183;-71
2022/07/08 00:02:59;;;;;;;2.27;1.80;;;13.20;94.80;;;;;;4216109;28;20701;-70
2022/07/08 00:04:59;;;;;;;1.70;1.60;;;13.20;95.30;;;;;;4216782;28;20192;-70
2022/07/08 00:07:00;;;;;;;1.50;1.40;;;13.10;95.30;;;;;;4216110;28;20230;-69
2022/07/08 00:09:00;;;;;;;1.70;1.60;;;13.10;95.60;;;;;;4216638;28;20175;-69
2022/07/08 00:11:01;;;;;;;1.80;1.70;;;13.10;95.70;;;;;;4215886;28;20258;-69
2022/07/08 00:13:02;;;;;;;2.43;1.67;;;13.00;96.90;;;;;;4216334;28;20199;-69
2022/07/08 00:15:03;;;;;;;2.00;1.57;;;12.90;97.10;;;;;;4216213;28;20179;-69
2022/07/08 00:17:04;;;;;;;3.37;1.67;;;13.00;96.80;;;;;;4216172;28;20214;-69
2022/07/08 00:19:05;;;;;;;2.20;1.70;;;12.90;97.00;;;;;;4216465;28;20646;-69
2022/07/08 00:21:05;;;;;;;1.97;1.83;;;12.90;97.10;;;;;;4215847;28;20255;-70
2022/07/08 00:23:06;;;;;;;2.00;1.60;;;12.90;97.00;;;;;;4217812;28;20210;-70
2022/07/08 00:25:07;;;;;;;2.37;1.90;;;12.80;97.20;;;;;;4216725;28;20191;-70
2022/07/08 00:27:08;;;;;;;3.23;1.50;;;12.80;98.00;;;;;;4216154;28;20293;-70
2022/07/08 00:29:08;;;;;;;2.03;1.70;;;12.80;98.10;;;;;;4216260;28;20232;-69
2022/07/08 00:31:09;;;;;;;2.00;1.80;;;12.70;99.10;;;;;;4215747;28;20179;-69
2022/07/08 00:33:09;;;;;;;2.47;1.83;;;12.70;99.10;;;;;;4215766;28;20567;-70
2022/07/08 00:35:10;;;;;;;1.90;1.60;;;12.70;99.60;;;;;;4216079;28;20556;-69
2022/07/08 00:37:10;;;;;;;3.20;1.80;;;12.70;99.50;;;;;;4216031;28;20767;-69
2022/07/08 00:39:11;;;;;;;2.33;1.63;;;12.60;99.90;;;;;;4215926;28;20558;-69
2022/07/08 00:41:12;;;;;;;3.67;1.80;;;12.60;99.90;;;;;;4215484;28;20183;-70
2022/07/08 00:43:36;;;;;;;3.37;1.90;;;12.60;99.90;;;;;;4215639;28;20209;-70
2022/07/08 00:45:37;;;;;;;1.90;1.70;;;12.60;99.90;;;;;;4215749;28;20220;-70
2022/07/08 00:47:37;;;;;;;2.93;2.70;;;12.50;99.90;;;;;;4212125;28;20210;-70
2022/07/08 00:49:39;;;;;;;3.57;1.90;;;12.40;99.90;;;;;;4198925;28;20176;-70
2022/07/08 00:51:41;;;;;;;2.60;2.00;;;12.40;99.90;;;;;;4198840;28;20176;-70
2022/07/08 00:53:48;;;;;;;3.27;2.13;;;12.40;99.90;;;;;;4198926;28;20222;-70
2022/07/08 00:55:49;;;;;;;1.80;1.70;;;12.40;99.90;;;;;;4199015;28;20180;-70
2022/07/08 00:57:50;;;;;;;2.30;2.10;;;12.30;99.90;;;;;;4199310;28;20184;-70
2022/07/08 00:59:51;;;;;;;2.53;1.80;;;12.30;99.90;;;;;;4199075;28;20179;-70
2022/07/08 01:01:51;;;;;;;2.33;2.13;;;12.30;99.90;;;;;;4197977;28;20599;-70
2022/07/08 01:03:53;;;;;;;3.27;2.43;;;12.30;99.90;;;;;;4199232;28;20215;-71
2022/07/08 01:05:54;;;;;;;2.40;2.20;;;12.30;99.90;;;;;;4198990;28;20901;-70
2022/07/08 01:07:56;;;;;;;2.50;2.10;;;12.20;99.90;;;;;;4198900;28;20211;-70
2022/07/08 01:09:58;;;;;;;3.63;2.40;;;12.30;99.90;;;;;;4199396;28;20175;-71
2022/07/08 01:11:59;;;;;;;2.57;2.37;;;12.30;99.90;;;;;;4196694;28;20256;-70
2022/07/08 01:14:00;;;;;;;4.20;2.50;;;12.30;99.90;;;;;;4198756;28;20215;-70
2022/07/08 01:16:00;;;;;;;5.83;2.20;;;12.20;99.90;;;;;;4199704;28;20168;-70
2022/07/08 01:18:01;;;;;;;2.43;2.23;;;12.10;99.90;;;;;;4199354;28;20198;-70
2022/07/08 01:20:02;;;;;;;3.57;2.60;;;12.10;99.90;;;;;;4199158;28;20188;-70
2022/07/08 01:22:03;;;;;;;5.27;2.33;;;12.10;99.90;;;;;;4198360;28;20203;-70
2022/07/08 01:24:04;;;;;;;3.13;2.27;;;12.10;99.90;;;;;;4197569;28;20272;-70
2022/07/08 01:26:11;;;;;;;3.07;2.50;;;12.00;99.90;;;;;;4199068;28;20217;-70
2022/07/08 01:28:11;;;;;;;2.80;2.50;;;12.00;99.90;;;;;;4198508;28;20216;-70
2022/07/08 01:30:12;;;;;;;2.50;2.30;;;11.90;99.90;;;;;;4198966;28;20507;-70
2022/07/08 01:32:13;;;;;;;3.80;2.50;;;11.80;99.90;;;;;;4198137;28;20182;-70
2022/07/08 01:34:13;;;;;;;3.23;2.90;;;11.70;99.90;;;;;;4198769;28;20195;-70
2022/07/08 01:36:14;;;;;;;2.97;2.60;;;11.70;99.90;;;;;;4199012;28;20182;-70
2022/07/08 01:38:14;;;;;;;2.97;2.73;;;11.70;99.90;;;;;;4198853;28;20187;-70
2022/07/08 01:40:15;;;;;;;4.70;2.47;;;11.70;99.90;;;;;;4198739;28;20186;-70
2022/07/08 01:42:15;;;;;;;5.27;2.60;;;11.70;99.90;;;;;;4198169;28;20186;-70
2022/07/08 01:44:16;;;;;;;4.93;2.90;;;11.60;99.90;;;;;;4211349;28;20202;-70
2022/07/08 01:46:17;;;;;;;3.60;2.67;;;11.50;99.90;;;;;;4215694;28;20195;-70
2022/07/08 01:48:17;;;;;;;3.20;2.63;;;11.40;99.90;;;;;;4215208;28;20628;-70
2022/07/08 01:50:18;;;;;;;2.93;2.60;;;11.40;99.90;;;;;;4215374;28;20265;-70
2022/07/08 01:52:19;;;;;;;3.97;2.87;;;11.30;99.90;;;;;;4213194;28;20187;-71
2022/07/08 01:54:20;;;;;;;3.20;2.90;;;11.30;99.90;;;;;;4215413;28;20282;-71
2022/07/08 01:56:20;;;;;;;3.97;2.77;;;11.30;99.90;;;;;;4216074;28;20187;-71
2022/07/08 01:58:21;;;;;;;6.33;2.80;;;11.30;99.90;;;;;;4215879;28;20314;-72
2022/07/08 02:00:22;;;;;;;3.73;2.93;;;11.30;99.90;;;;;;4214782;28;20232;-71
2022/07/08 02:02:22;;;;;;;4.60;3.00;;;11.30;99.90;;;;;;4215075;28;20240;-71
2022/07/08 02:04:23;;;;;;;5.00;3.00;;;11.30;99.90;;;;;;4215201;28;20195;-72
2022/07/08 02:06:23;;;;;;;4.07;2.90;;;11.40;99.90;;;;;;4215283;28;20257;-71
2022/07/08 02:08:24;;;;;;;3.57;2.60;;;11.40;99.90;;;;;;4215373;28;20213;-71
2022/07/08 02:10:24;;;;;;;3.23;2.57;;;11.50;99.90;;;;;;4215268;28;20175;-71
2022/07/08 02:12:25;;;;;;;3.40;2.70;;;11.60;99.90;;;;;;4214358;28;20179;-71
2022/07/08 02:14:26;;;;;;;3.70;2.33;;;11.80;99.90;;;;;;4215100;28;20204;-72
2022/07/08 02:16:26;;;;;;;4.40;2.30;;;11.90;99.90;;;;;;4214158;28;20237;-72
2022/07/08 02:18:27;;;;;;;3.33;2.80;;;12.00;99.90;;;;;;4215767;28;20210;-72
2022/07/08 02:20:27;;;;;;;3.30;2.83;;;12.00;99.90;;;;;;4215965;28;20195;-72
2022/07/08 02:22:28;;;;;;;3.23;2.37;;;12.20;99.90;;;;;;4214730;28;20305;-73
2022/07/08 02:24:28;;;;;;;2.80;2.43;;;12.20;99.90;;;;;;4215498;28;20199;-71
2022/07/08 02:26:29;;;;;;;3.77;2.17;;;12.30;99.90;;;;;;4214014;28;20179;-71
2022/07/08 02:28:29;;;;;;;4.73;2.37;;;12.30;99.90;;;;;;4212011;28;20178;-71
2022/07/08 02:30:30;;;;;;;3.53;2.27;;;12.20;99.90;;;;;;4210129;28;20611;-71
2022/07/08 02:32:31;;;;;;;2.40;2.10;;;12.20;99.90;;;;;;4214241;28;20562;-71
2022/07/08 02:34:31;;;;;;;2.60;2.10;;;12.20;99.90;;;;;;4214984;28;20688;-71
2022/07/08 02:36:32;;;;;;;2.20;2.00;;;12.20;99.90;;;;;;4215209;28;20179;-71
2022/07/08 02:38:32;;;;;;;4.37;2.90;;;12.20;99.90;;;;;;4215151;28;20329;-72
2022/07/08 02:40:33;;;;;;;2.83;2.57;;;12.20;99.90;;;;;;4214789;28;20715;-72
2022/07/08 02:42:33;;;;;;;5.27;2.67;;;12.20;99.90;;;;;;4215306;28;20187;-72
2022/07/08 02:44:34;;;;;;;5.10;3.10;;;12.10;99.90;;;;;;4215556;28;20183;-72
2022/07/08 02:46:34;;;;;;;4.07;2.20;;;12.30;99.90;;;;;;4215567;28;20171;-72
2022/07/08 02:48:35;;;;;;;6.93;6.30;;;12.30;99.90;;;;;;4211958;28;20171;-72
2022/07/08 02:50:36;;;;;;;4.80;2.90;;;12.40;99.90;;;;;;4213479;28;20182;-71
2022/07/08 02:52:36;;;;;;;4.47;2.63;;;12.30;99.90;;;;;;4214054;28;20195;-71
2022/07/08 02:54:38;;;;;;;4.53;2.17;;;12.40;99.90;;;;;;4215020;28;20173;-73
2022/07/08 02:56:38;;;;;;;4.30;2.47;;;12.40;99.90;;;;;;4215326;28;20261;-72
2022/07/08 02:58:39;;;;;;;6.03;2.30;;;12.50;99.90;;;;;;4215640;28;20175;-71
2022/07/08 03:00:39;;;;;;;4.73;2.23;;;12.50;99.10;;;;;;4215007;28;20297;-71
2022/07/08 03:02:40;;;;;;;5.10;2.40;;;12.50;99.40;;;;;;4214429;28;20206;-72
2022/07/08 03:04:40;;;;;;;4.50;2.40;;;12.50;99.60;;;;;;4214443;28;20203;-72
2022/07/08 03:06:41;;;;;;;4.57;2.60;;;12.50;98.80;;;;;;4214607;28;20182;-72
2022/07/08 03:08:42;;;;;;;2.83;1.93;;;12.50;99.00;;;;;;4214766;28;20202;-71
2022/07/08 03:10:42;;;;;;;7.50;2.53;;;12.40;99.10;;;;;;4214234;28;20186;-71
2022/07/08 03:12:43;;;;;;;4.23;2.73;;;12.50;97.80;;;;;;4215141;28;20175;-71
2022/07/08 03:14:43;;;;;;;2.37;2.13;;;12.60;96.30;;;;;;4214627;28;20171;-72
2022/07/08 03:16:44;;;;;;;8.13;2.17;;;12.60;96.60;;;;;;4214555;28;20697;-71
2022/07/08 03:18:45;;;;;;;5.20;2.43;;;12.60;95.70;;;;;;4214750;28;20664;-72
2022/07/08 03:20:46;;;;;;;4.47;2.67;;;12.60;95.60;;;;;;4214314;28;20194;-71
2022/07/08 03:22:47;;;;;;;7.10;2.70;;;12.50;95.60;;;;;;4215094;28;20646;-71
2022/07/08 03:24:47;;;;;;;2.67;2.10;;;12.40;96.30;;;;;;4214712;28;20258;-72
2022/07/08 03:26:48;;;;;;;2.50;2.30;;;12.40;95.80;;;;;;4215249;28;20179;-71
2022/07/08 03:28:48;;;;;;;6.37;2.37;;;12.30;96.60;;;;;;4214666;28;20183;-71
2022/07/08 03:30:49;;;;;;;3.40;2.10;;;12.40;96.60;;;;;;4213844;28;20206;-71
2022/07/08 03:32:49;;;;;;;6.73;2.40;;;12.50;96.00;;;;;;4214013;28;20183;-71
2022/07/08 03:34:50;;;;;;;4.80;2.70;;;12.60;94.90;;;;;;4214381;28;20181;-71
2022/07/08 03:36:51;;;;;;;7.07;3.10;;;12.60;94.00;;;;;;4214270;28;20273;-71
2022/07/08 03:38:51;;;;;;;4.37;2.57;;;12.50;94.20;;;;;;4213997;28;21371;-72
2022/07/08 03:43:11;;;;;;;7.83;2.43;;;12.50;94.80;;;;;;4214189;28;20258;-71
2022/07/08 03:45:11;;;;;;;4.80;2.50;;;12.40;94.00;;;;;;4214542;28;20190;-71
2022/07/08 03:47:12;;;;;;;6.23;3.17;;;12.30;94.70;;;;;;4215152;28;20289;-71
2022/07/08 03:49:13;;;;;;;4.20;2.77;;;12.40;93.70;;;;;;4216836;28;20205;-71
2022/07/08 03:51:14;;;;;;;7.67;3.20;;;12.50;93.30;;;;;;4216299;28;20171;-71
2022/07/08 03:53:14;;;;;;;8.23;3.40;;;12.30;92.60;;;;;;4217508;28;20195;-72
2022/07/08 03:55:15;;;;;;;10.57;3.70;;;12.30;93.40;;;;;;4218028;28;20194;-72
2022/07/08 03:57:15;;;;;;;7.87;3.83;;;12.30;91.40;;;;;;4217047;28;20224;-72
2022/07/08 03:59:16;;;;;;;5.87;3.17;;;12.30;91.20;;;;;;4217732;28;20236;-72
2022/07/08 04:01:17;;;;;;;4.93;3.10;;;12.40;90.40;;;;;;4216958;28;20179;-72
2022/07/08 04:03:17;;;;;;;6.60;3.83;;;11.90;90.50;;;;;;4217074;28;20198;-70
2022/07/08 04:05:18;;;;;;;10.27;3.87;;;11.80;90.40;;;;;;4216971;28;20528;-72
2022/07/08 04:07:19;;;;;;;4.10;3.53;;;11.80;89.10;;;;;;4216833;28;20203;-71
2022/07/08 04:09:19;;;;;;;5.30;3.50;;;12.00;89.00;;;;;;4216887;28;20171;-73
2022/07/08 04:11:20;;;;;;;7.80;3.43;;;12.10;88.00;;;;;;4217439;28;20232;-72
2022/07/08 04:13:20;;;;;;;5.17;3.27;;;12.10;86.50;;;;;;4217672;28;20202;-72
2022/07/08 04:15:21;;;;;;;6.27;3.37;;;12.20;86.30;;;;;;4217677;28;20203;-72
2022/07/08 04:17:21;;;;;;;6.13;3.57;;;12.20;85.00;;;;;;4217918;28;20653;-71
2022/07/08 04:19:22;;;;;;;4.37;3.20;;;12.10;84.90;;;;;;4217694;28;20187;-71
2022/07/08 04:21:22;;;;;;;7.53;3.33;;;12.10;85.30;;;;;;4217821;28;20191;-71
2022/07/08 04:23:23;;;;;;;6.87;3.27;;;12.20;83.30;;;;;;4217527;28;20195;-71
2022/07/08 04:25:24;;;;;;;6.83;3.23;;;12.30;80.30;;;;;;4216447;28;20183;-71
2022/07/08 04:27:24;;;;;;;11.07;4.50;;;12.20;80.50;;;;;;4217637;28;20211;-71
2022/07/08 04:29:25;;;;;;;5.23;3.33;;;12.30;80.40;;;;;;4217143;28;20250;-72
2022/07/08 04:31:26;;;;;;;4.70;2.87;;;12.30;80.40;;;;;;4214890;28;20182;-73
2022/07/08 04:33:27;;;;;;;5.80;3.00;;;12.40;78.90;;;;;;4214467;28;20187;-71
2022/07/08 04:35:27;;;;;;;5.57;3.57;;;12.40;78.00;;;;;;4214469;28;20205;-72
2022/07/08 04:37:28;;;;;;;7.40;3.40;;;12.40;78.60;;;;;;4216837;28;20175;-71
2022/07/08 04:39:29;;;;;;;5.73;3.20;;;12.20;78.60;;;;;;4217325;28;20171;-72
2022/07/08 04:41:29;;;;;;;7.07;3.30;;;12.30;78.80;;;;;;4209315;28;20191;-72
2022/07/08 04:43:30;;;;;;;6.03;3.10;;;12.30;78.90;;;;;;4208289;28;20204;-71
2022/07/08 04:45:30;;;;;;;8.77;3.10;;;12.30;77.80;;;;;;4219523;28;20372;-71
2022/07/08 04:47:31;;;;;;;5.73;3.17;;;12.30;76.80;;;;;;4218022;28;20260;-71
2022/07/08 04:49:31;;;;;;;5.87;2.80;;;12.20;79.80;;;;;;4216198;28;20301;-71
2022/07/08 04:51:32;;;;;;;3.73;2.63;;;12.40;77.20;;;;;;4216132;28;20203;-71
2022/07/08 04:53:32;;;;;;;6.07;3.00;;;12.50;76.90;;;;;;4216158;28;20238;-71
2022/07/08 04:55:33;;;;;;;4.57;2.70;;;12.50;76.10;;;;;;4208147;28;20184;-72
2022/07/08 04:57:34;;;;;;;7.57;3.20;;;12.40;78.00;;;;;;4199460;28;20228;-72
2022/07/08 04:59:35;;;;;;;6.23;2.70;;;12.40;77.00;;;;;;4199415;28;20197;-72
2022/07/08 05:01:35;;;;;;;4.80;3.03;;;12.60;75.60;;;;;;4198522;28;20175;-71
2022/07/08 05:03:36;;;;;;;4.67;2.93;;;12.50;75.70;;;;;;4199430;28;20288;-71
2022/07/08 05:05:36;;;;;;;3.87;2.97;;;12.30;77.60;;;;;;4199195;28;20233;-71
2022/07/08 05:07:37;;;;;;;4.20;2.97;;;12.20;77.50;;;;;;4199072;28;20256;-71
2022/07/08 05:09:37;;;;;;;6.23;2.73;;;12.10;78.00;;;;;;4199262;28;20183;-71
2022/07/08 05:11:38;;;;;;;6.90;2.93;;;12.10;77.70;;;;;;4199165;28;20176;-71
2022/07/08 05:13:38;;;;;;;6.80;2.90;;;12.20;76.60;;;;;;4199710;28;20202;-71
2022/07/08 05:15:39;;;;;;;9.23;3.10;;;11.90;78.00;;;;;;4198994;28;20171;-71
2022/07/08 05:17:40;;;;;;;8.53;2.80;;;11.80;79.10;;;;;;4198867;28;20180;-71
2022/07/08 05:19:40;;;;;;;5.07;2.67;;;11.70;80.50;;;;;;4199408;28;20238;-71
2022/07/08 05:21:41;;;;;;;6.90;2.80;;;11.70;81.50;;;;;;4198563;28;20199;-71
2022/07/08 05:23:42;;;;;;;6.43;2.87;;;11.60;81.60;;;;;;4197920;28;20195;-71
2022/07/08 05:25:42;;;;;;;5.90;2.70;;;11.60;82.80;;;;;;4199301;28;20274;-71
2022/07/08 05:27:43;;;;;;;5.47;2.77;;;11.60;82.40;;;;;;4199109;28;20207;-71
2022/07/08 05:29:43;;;;;;;11.47;3.50;;;11.60;81.60;;;;;;4203962;28;20189;-71
2022/07/08 05:31:44;;;;;;;6.43;2.57;;;11.50;80.90;;;;;;4215042;28;20175;-72
2022/07/08 05:33:44;;;;;;;4.30;2.50;;;11.50;80.70;;;;;;4215977;28;20195;-71
2022/07/08 05:35:45;;;;;;;7.90;3.00;;;11.50;82.20;;;;;;4215897;28;20171;-71
2022/07/08 05:37:45;;;;;;;7.50;2.30;;;11.50;81.80;;;;;;4216295;28;20178;-71
2022/07/08 05:39:46;;;;;;;6.23;2.70;;;11.50;83.00;;;;;;4214620;28;20266;-71
2022/07/08 05:41:46;;;;;;;4.10;2.60;;;11.40;84.50;;;;;;4215050;28;20271;-71
2022/07/08 05:43:47;;;;;;;5.03;2.77;;;11.30;85.80;;;;;;4215726;28;20203;-72
2022/07/08 05:45:47;;;;;;;5.40;2.57;;;11.30;83.50;;;;;;4215752;28;20243;-72
2022/07/08 05:47:48;;;;;;;7.43;2.23;;;11.30;83.60;;;;;;4215502;28;20218;-73
2022/07/08 05:49:48;;;;;;;4.50;2.60;;;11.40;81.10;;;;;;4215709;28;20347;-73
2022/07/08 05:51:49;;;;;;;7.10;2.63;;;11.40;80.40;;;;;;4215374;28;20204;-73
2022/07/08 05:53:52;;;;;;;4.57;2.37;;;11.30;82.60;;;;;;4215825;28;20203;-73
2022/07/08 05:55:52;;;;;;;6.60;2.77;;;11.30;82.80;;;;;;4214238;28;20183;-73
2022/07/08 05:57:53;;;;;;;4.70;2.60;;;11.30;82.00;;;;;;4215619;28;20186;-73
2022/07/08 05:59:54;;;;;;;4.90;2.47;;;11.30;83.00;;;;;;4215262;28;20202;-73
2022/07/08 06:01:55;;;;;;;8.53;2.80;;;11.40;82.50;;;;;;4214911;28;20262;-72
2022/07/08 06:03:56;;;;;;;5.00;2.80;;;11.50;81.20;;;;;;4215311;28;20198;-73
2022/07/08 06:05:56;;;;;;;6.93;2.50;;;11.50;80.90;;;;;;4215451;28;20186;-72
2022/07/08 06:07:57;;;;;;;6.07;2.53;;;11.50;81.20;;;;;;4215578;28;20190;-72
2022/07/08 06:09:57;;;;;;;5.87;2.40;;;11.60;80.70;;;;;;4214977;28;20182;-72
2022/07/08 06:11:58;;;;;;;3.60;2.47;;;11.60;80.40;;;;;;4214190;28;20175;-72
2022/07/08 06:13:59;;;;;;;5.50;2.30;;;11.50;82.40;;;;;;4215301;28;20195;-72
2022/07/08 06:15:59;;;;;;;4.27;2.30;;;11.50;80.70;;;;;;4213907;28;20183;-72
2022/07/08 06:18:00;;;;;;;3.77;2.50;;;11.50;82.60;;;;;;4215684;28;20202;-72
2022/07/08 06:20:01;;;;;;;5.27;3.07;;;11.60;81.30;;;;;;4215102;28;20978;-73
2022/07/08 06:22:01;;;;;;;8.37;2.90;;;11.80;79.90;;;;;;4214517;28;20190;-71
2022/07/08 06:24:02;;;;;;;6.47;2.33;;;11.90;80.40;;;;;;4215048;28;20270;-72
2022/07/08 06:26:03;;;;;;;8.00;2.80;;;11.80;80.80;;;;;;4213671;28;20178;-72
2022/07/08 06:28:04;;;;;;;10.93;3.00;;;11.90;80.40;;;;;;4214959;28;20738;-72
2022/07/08 06:30:05;;;;;;;5.17;2.63;;;11.80;80.40;;;;;;4215011;28;20662;-72
2022/07/08 06:32:06;;;;;;;4.80;2.40;;;11.70;79.80;;;;;;4214716;28;20276;-72
2022/07/08 06:34:06;;;;;;;8.10;2.70;;;11.80;80.30;;;;;;4214975;28;20696;-72
2022/07/08 06:36:07;;;;;;;5.57;2.40;;;11.90;80.00;;;;;;4214998;28;20191;-72
2022/07/08 06:38:08;;;;;;;4.30;2.67;;;11.90;80.50;;;;;;4215026;28;20179;-72
2022/07/08 06:40:09;;;;;;;3.83;2.50;;;11.90;81.70;;;;;;4214755;28;20258;-72
2022/07/08 06:42:09;;;;;;;3.67;2.50;;;11.90;82.10;;;;;;4214270;28;20171;-72
2022/07/08 06:44:10;;;;;;;5.43;2.80;;;11.90;83.70;;;;;;4214628;28;20229;-72
2022/07/08 06:46:11;;;;;;;7.80;2.40;;;12.00;81.90;;;;;;4214895;28;20599;-71
2022/07/08 06:48:11;;;;;;;4.23;2.27;;;12.10;80.10;;;;;;4217947;28;20213;-72
2022/07/08 06:50:12;;;;;;;4.37;2.37;;;12.20;79.10;;;;;;4216451;28;20183;-72
2022/07/08 06:52:13;;;;;;;7.73;2.30;;;12.20;80.70;;;;;;4214608;28;20171;-73
2022/07/08 06:56:32;;;;;;;5.47;2.30;;;12.40;80.50;;;;;;4199267;28;20262;-74
2022/07/08 06:58:33;;;;;;;7.27;3.03;;;12.40;79.10;;;;;;4198868;28;20659;-72
2022/07/08 07:00:33;;;;;;;4.53;2.93;;;12.40;79.00;;;;;;4199150;28;20756;-72
2022/07/08 07:02:34;;;;;;;4.30;2.40;;;12.50;78.00;;;;;;4198152;28;20546;-73
2022/07/08 07:04:35;;;;;;;9.53;2.47;;;12.60;77.80;;;;;;4197241;28;20235;-73
2022/07/08 07:06:36;;;;;;;4.63;2.40;;;12.60;78.60;;;;;;4199048;28;20202;-73
2022/07/08 07:08:37;;;;;;;7.77;6.73;;;12.70;77.10;;;;;;4198689;28;20207;-74
2022/07/08 07:10:37;;;;;;;6.20;2.23;;;12.70;75.60;;;;;;4198638;28;20176;-72
2022/07/08 07:12:38;;;;;;;5.10;2.10;;;12.70;76.10;;;;;;4198216;28;20639;-73
2022/07/08 07:14:38;;;;;;;4.30;2.50;;;13.00;75.50;;;;;;4198416;28;20562;-72
2022/07/08 07:16:39;;;;;;;6.53;2.30;;;13.10;76.90;;;;;;4198755;28;20176;-73
2022/07/08 07:18:40;;;;;;;5.27;2.20;;;13.10;75.70;;;;;;4198952;28;20180;-72
2022/07/08 07:20:41;;;;;;;4.17;2.00;;;13.30;75.30;;;;;;4197836;28;20194;-72
2022/07/08 07:22:41;;;;;;;2.83;2.00;;;13.40;73.50;;;;;;4197490;28;20187;-72
2022/07/08 07:24:42;;;;;;;5.30;1.90;;;13.60;72.50;;;;;;4198951;28;20187;-71
2022/07/08 07:26:43;;;;;;;3.70;2.07;;;13.70;75.40;;;;;;4198528;28;20207;-73
2022/07/08 07:28:44;;;;;;;5.77;2.10;;;13.70;77.10;;;;;;4205875;28;20209;-73
2022/07/08 07:30:44;;;;;;;4.57;2.17;;;13.70;78.40;;;;;;4214968;28;20187;-74
2022/07/08 07:32:45;;;;;;;5.47;1.90;;;13.90;71.80;;;;;;4213934;28;20217;-73
2022/07/08 07:34:45;;;;;;;4.33;2.10;;;14.00;69.70;;;;;;4215424;28;20175;-73
2022/07/08 07:36:46;;;;;;;9.43;2.70;;;14.10;71.10;;;;;;4214550;28;20189;-73
2022/07/08 07:38:46;;;;;;;2.37;1.80;;;14.20;69.30;;;;;;4215822;28;20175;-73
2022/07/08 07:40:47;;;;;;;5.83;1.90;;;14.30;68.20;;;;;;4215324;28;20231;-73
2022/07/08 07:42:48;;;;;;;4.40;2.30;;;14.30;68.40;;;;;;4215791;28;20189;-73
2022/07/08 07:44:48;;;;;;;8.30;2.27;;;14.40;67.30;;;;;;4215316;28;20915;-73
2022/07/08 07:46:49;;;;;;;5.23;1.87;;;14.40;67.40;;;;;;4214158;28;20189;-73
2022/07/08 07:48:49;;;;;;;4.83;1.90;;;14.30;68.10;;;;;;4216139;28;20207;-74
2022/07/08 07:50:50;;;;;;;5.47;2.40;;;14.40;68.10;;;;;;4214047;28;20179;-73
2022/07/08 07:52:50;;;;;;;7.07;2.20;;;14.40;66.80;;;;;;4214767;28;20195;-73
2022/07/08 07:54:51;;;;;;;6.97;2.37;;;14.50;66.30;;;;;;4214633;28;20178;-73
2022/07/08 07:56:52;;;;;;;5.83;2.40;;;14.50;66.70;;;;;;4214043;28;20195;-73
2022/07/08 07:58:52;;;;;;;2.23;2.00;;;14.60;66.70;;;;;;4214279;28;20171;-73
2022/07/08 08:00:53;;;;;;;3.87;2.70;;;14.80;65.80;;;;;;4213614;28;20183;-73
2022/07/08 08:02:53;;;;;;;5.63;3.23;;;14.80;65.70;;;;;;4214245;28;20591;-73
2022/07/08 08:04:54;;;;;;;7.10;2.63;;;15.00;65.90;;;;;;4214081;28;20638;-73
2022/07/08 08:06:54;;;;;;;4.47;2.40;;;15.00;65.10;;;;;;4214116;28;20179;-73
2022/07/08 08:08:56;;;;;;;11.00;2.10;;;15.10;64.50;;;;;;4214426;28;20190;-73
2022/07/08 08:10:57;;;;;;;4.87;2.00;;;15.40;66.10;;;;;;4213778;28;20178;-73
2022/07/08 08:12:58;;;;;;;6.97;2.03;;;15.50;64.10;;;;;;4217230;28;20571;-73
2022/07/08 08:14:58;;;;;;;5.57;2.33;;;15.40;63.90;;;;;;4217413;28;20167;-73
2022/07/08 08:16:59;;;;;;;2.97;1.87;;;15.30;64.30;;;;;;4217749;28;20183;-72
2022/07/08 08:18:59;;;;;;;3.20;1.87;;;15.20;66.60;;;;;;4217626;28;20664;-72
2022/07/08 08:21:00;;;;;;;3.40;1.70;;;15.50;65.40;;;;;;4215971;28;20302;-73
2022/07/08 08:23:00;;;;;;;4.43;1.73;;;16.00;65.30;;;;;;4216505;28;21104;-73
2022/07/08 08:25:02;;;;;;;4.37;1.87;;;16.40;60.10;;;;;;4217207;28;20178;-72
2022/07/08 08:27:03;;;;;;;3.17;2.23;;;16.60;58.90;;;;;;4216447;28;20198;-74
2022/07/08 08:29:03;;;;;;;10.47;9.73;;;16.60;57.60;;;;;;4216583;28;20179;-72
2022/07/08 08:31:04;;;;;;;3.67;2.23;;;16.80;57.80;;;;;;4215825;28;20175;-72
2022/07/08 08:33:04;;;;;;;6.03;2.33;;;16.90;56.80;;;;;;4216798;28;20674;-72
2022/07/08 08:35:06;;;;;;;4.43;2.60;;;17.00;55.80;;;;;;4216735;28;20175;-72
2022/07/08 08:37:07;;;;;;;5.87;2.43;;;17.10;55.50;;;;;;4215348;28;20183;-72
2022/07/08 08:39:07;;;;;;;3.87;2.20;;;17.20;56.90;;;;;;4216652;28;20190;-72
2022/07/08 08:41:09;;;;;;;4.30;2.33;;;16.90;55.80;;;;;;4215419;28;20170;-72
2022/07/08 08:43:10;;;;;;;5.67;4.37;;;16.90;54.90;;;;;;4216601;28;20239;-72
2022/07/08 08:45:11;;;;;;;2.87;1.97;;;17.10;54.40;;;;;;4216255;28;20665;-73
2022/07/08 08:47:13;;;;;;;2.70;2.10;;;16.90;56.90;;;;;;4216040;28;20215;-72
2022/07/08 08:49:16;;;;;;;6.03;2.07;;;17.20;55.20;;;;;;4216215;28;20257;-72
2022/07/08 08:51:20;;;;;;;3.20;1.77;;;17.30;54.60;;;;;;4215819;28;20183;-72
2022/07/08 08:53:30;;;;;;;3.27;2.10;;;17.50;55.00;;;;;;4213543;28;20311;-71
2022/07/08 08:55:33;;;;;;;20.93;2.57;;;17.40;54.80;;;;;;4199667;28;20523;-72
2022/07/08 08:57:33;;;;;;;7.13;1.80;;;17.30;54.00;;;;;;4199394;28;20695;-72
2022/07/08 08:59:35;;;;;;;3.87;2.87;;;16.90;54.70;;;;;;4199118;28;20195;-72
2022/07/08 09:01:36;;;;;;;4.13;1.90;;;16.60;56.60;;;;;;4198967;28;20601;-71
2022/07/08 09:03:36;;;;;;;3.63;3.07;;;16.80;56.20;;;;;;4199312;28;20208;-71
2022/07/08 09:05:37;;;;;;;7.60;6.90;;;16.80;55.50;;;;;;4199164;28;20207;-71
2022/07/08 09:07:38;;;;;;;7.57;2.00;;;16.90;55.10;;;;;;4199175;28;20276;-71
2022/07/08 09:09:39;;;;;;;6.13;1.80;;;16.90;54.70;;;;;;4199025;28;20548;-72
2022/07/08 09:11:40;;;;;;;4.30;2.00;;;16.80;55.90;;;;;;4198365;28;20176;-71
2022/07/08 09:13:40;;;;;;;3.80;1.67;;;16.90;55.20;;;;;;4199199;28;20195;-71
2022/07/08 09:15:46;;;;;;;5.00;1.50;;;16.70;55.70;;;;;;4199006;28;20249;-71
2022/07/08 09:17:46;;;;;;;4.77;1.90;;;16.90;55.80;;;;;;4199475;28;20179;-71
2022/07/08 09:19:48;;;;;;;6.33;5.13;;;17.20;57.20;;;;;;4199453;28;20601;-71
2022/07/08 09:21:52;;;;;;;3.43;1.70;;;17.40;56.40;;;;;;4198727;28;20674;-71
2022/07/08 09:23:53;;;;;;;2.30;1.97;;;17.60;56.40;;;;;;4198896;28;20731;-71
2022/07/08 09:25:56;;;;;;;6.33;3.63;;;17.70;55.10;;;;;;4199072;28;20188;-71
2022/07/08 09:27:58;;;;;;;5.27;2.27;;;17.70;54.00;;;;;;4198833;28;20261;-71
2022/07/08 09:30:00;;;;;;;6.27;2.20;;;17.80;53.50;;;;;;4198868;28;20275;-71
2022/07/08 09:32:14;;;;;;;6.00;1.57;;;17.40;52.70;;;;;;4197893;28;20633;-71
2022/07/08 09:34:17;;;;;;;4.13;2.00;;;17.40;57.60;;;;;;4198785;28;20260;-70
2022/07/08 09:36:18;;;;;;;5.53;1.80;;;17.70;54.90;;;;;;4198732;28;20183;-71
2022/07/08 09:38:19;;;;;;;5.20;2.67;;;17.90;53.00;;;;;;4213819;28;20246;-70
2022/07/08 09:40:20;;;;;;;6.03;2.77;;;18.20;52.80;;;;;;4214890;28;20235;-70
2022/07/08 09:42:20;;;;;;;3.40;1.93;;;18.30;50.90;;;;;;4214523;28;20966;-70
2022/07/08 09:44:25;;;;;;;6.23;2.47;;;18.40;51.50;;;;;;4215324;28;20273;-70
2022/07/08 09:46:36;;;;;;;2.67;1.50;;;18.60;51.90;;;;;;4215024;28;20266;-71
2022/07/08 09:48:36;;;;;;;4.23;2.00;;;18.60;51.50;;;;;;4214770;28;20202;-71
2022/07/08 09:50:42;;;;;;;6.23;4.50;;;18.80;55.10;;;;;;4215094;28;20177;-70
2022/07/08 09:52:43;;;;;;;3.47;1.60;;;19.00;54.50;;;;;;4214949;28;20274;-70
2022/07/08 09:54:44;;;;;;;3.33;2.73;;;19.20;50.60;;;;;;4214531;28;20167;-70
2022/07/08 09:57:02;;;;;;;3.13;1.73;;;19.10;47.20;;;;;;4214751;28;20183;-70
2022/07/08 09:59:03;;;;;;;6.87;6.27;;;18.90;48.40;;;;;;4214018;28;20259;-70
2022/07/08 10:01:04;;;;;;;1.57;1.37;;;18.80;46.60;;;;;;4214149;28;20175;-70
2022/07/08 10:03:05;;;;;;;5.97;5.37;;;19.10;46.80;;;;;;4214307;28;20191;-69
2022/07/08 10:05:06;;;;;;;2.93;1.60;;;19.00;46.50;;;;;;4214211;28;20175;-69
2022/07/08 10:07:07;;;;;;;5.53;5.03;;;19.30;46.50;;;;;;4214147;28;20293;-70
2022/07/08 10:09:07;;;;;;;2.83;1.43;;;19.40;45.40;;;;;;4214343;28;20270;-70
2022/07/08 10:11:10;;;;;;;5.43;3.40;;;19.50;45.50;;;;;;4213455;28;20171;-70
2022/07/08 10:13:11;;;;;;;5.60;2.30;;;19.90;45.40;;;;;;4213901;28;20214;-69
2022/07/08 10:15:12;;;;;;;2.83;2.20;;;19.80;46.10;;;;;;4213612;28;20179;-69
2022/07/08 10:17:19;;;;;;;5.00;2.00;;;20.00;45.30;;;;;;4213692;28;20228;-70
2022/07/08 10:19:21;;;;;;;4.03;1.90;;;20.30;47.10;;;;;;4213508;28;20184;-69
2022/07/08 10:21:24;;;;;;;4.20;1.80;;;19.70;47.30;;;;;;4212328;28;20199;-69
2022/07/08 10:23:31;;;;;;;4.77;2.40;;;19.80;47.00;;;;;;4211732;28;20206;-68
2022/07/08 10:25:32;;;;;;;4.37;1.87;;;20.10;45.30;;;;;;4213105;28;20179;-68
2022/07/08 10:27:35;;;;;;;3.27;1.60;;;20.40;45.10;;;;;;4212999;28;20299;-70
2022/07/08 10:29:39;;;;;;;13.80;12.57;;;20.60;42.40;;;;;;4213329;28;20187;-69
2022/07/08 10:31:51;;;;;;;4.30;1.60;;;20.90;42.30;;;;;;4212546;28;20210;-68
2022/07/08 10:34:00;;;;;;;6.00;5.53;;;21.10;44.40;;;;;;4212607;28;20249;-69